createdAt,value
2022-10-30T00:02:21.988Z,96633.78
2022-10-30T00:04:48.329Z,96627.88
2022-10-30T00:07:15.173Z,96627.19
2022-10-30T00:09:41.464Z,96625.91
2022-10-30T00:12:07.824Z,96624.56
2022-10-30T00:14:34.639Z,96622.69
2022-10-30T00:17:00.954Z,96629.63
2022-10-30T00:19:27.258Z,96631.19
2022-10-30T00:21:54.229Z,96621.16
2022-10-30T00:24:20.536Z,96622.16
2022-10-30T00:26:46.900Z,96635.66
2022-10-30T00:29:13.592Z,96621.31
2022-10-30T00:31:39.897Z,96618.66
2022-10-30T00:34:06.205Z,96618.91
2022-10-30T00:36:32.942Z,96619.75
2022-10-30T00:38:59.719Z,96624.47
2022-10-30T00:41:26.050Z,96620.56
2022-10-30T00:43:52.968Z,96614.00
2022-10-30T00:46:38.210Z,96619.47
2022-10-30T00:49:04.431Z,96619.69
2022-10-30T00:51:33.038Z,96620.50
2022-10-30T00:54:03.448Z,96612.09
2022-10-30T00:56:30.666Z,96611.47
2022-10-30T00:59:01.468Z,96616.41
2022-10-30T01:01:32.529Z,96621.94
2022-10-30T01:04:02.429Z,96616.41
2022-10-30T01:06:31.437Z,96621.69
2022-10-30T01:09:00.261Z,96615.13
2022-10-30T01:11:27.360Z,96615.69
2022-10-30T01:13:58.599Z,96623.00
2022-10-30T01:16:37.918Z,96615.44
2022-10-30T01:19:04.254Z,96607.50
2022-10-30T01:22:06.925Z,96610.59
2022-10-30T01:25:04.837Z,96607.03
2022-10-30T01:27:53.292Z,96608.44
2022-10-30T01:31:03.048Z,96597.88
2022-10-30T01:33:42.027Z,96593.91
2022-10-30T01:36:23.563Z,96604.31
2022-10-30T01:39:14.976Z,96592.84
2022-10-30T01:41:41.448Z,96598.41
2022-10-30T01:44:22.556Z,96590.47
2022-10-30T01:47:18.662Z,96591.84
2022-10-30T01:50:17.310Z,96585.19
2022-10-30T01:52:58.401Z,96580.38
2022-10-30T01:55:41.894Z,96580.47
2022-10-30T01:58:29.278Z,96583.72
2022-10-30T02:00:59.339Z,96575.63
2022-10-30T02:03:27.270Z,96590.91
2022-10-30T02:05:54.320Z,96585.91
2022-10-30T02:08:22.221Z,96588.06
2022-10-30T02:10:51.714Z,96584.94
2022-10-30T02:13:18.415Z,96582.97
2022-10-30T02:15:46.242Z,96588.25
2022-10-30T02:18:13.062Z,96583.41
2022-10-30T02:20:39.529Z,96581.94
2022-10-30T02:23:06.897Z,96589.88
2022-10-30T02:25:34.087Z,96587.06
2022-10-30T02:28:00.455Z,96590.69
2022-10-30T02:30:26.974Z,96593.53
2022-10-30T02:32:53.898Z,96584.16
2022-10-30T02:35:20.224Z,96580.88
2022-10-30T02:37:48.849Z,96582.50
2022-10-30T02:40:15.347Z,96583.06
2022-10-30T02:42:41.654Z,96596.00
2022-10-30T02:45:08.709Z,96588.00
2022-10-30T02:47:35.511Z,96589.19
2022-10-30T02:50:01.832Z,96588.56
2022-10-30T02:52:28.148Z,96588.56
2022-10-30T02:54:55.245Z,96588.28
2022-10-30T02:57:21.550Z,96583.47
2022-10-30T02:59:47.862Z,96589.22
2022-10-30T03:02:14.982Z,96578.19
2022-10-30T03:04:41.340Z,96581.44
2022-10-30T03:07:07.668Z,96584.41
2022-10-30T03:09:34.327Z,96586.91
2022-10-30T03:12:00.707Z,96582.03
2022-10-30T03:14:27.126Z,96580.75
2022-10-30T03:16:54.065Z,96578.13
2022-10-30T03:19:20.481Z,96585.75
2022-10-30T03:21:47.103Z,96581.19
2022-10-30T03:24:13.890Z,96578.53
2022-10-30T03:26:40.617Z,96575.91
2022-10-30T03:29:07.083Z,96570.75
2022-10-30T03:31:33.595Z,96580.75
2022-10-30T03:34:00.353Z,96578.38
2022-10-30T03:36:26.818Z,96579.00
2022-10-30T03:38:53.689Z,96575.09
2022-10-30T03:41:20.013Z,96573.19
2022-10-30T03:43:46.755Z,96576.66
2022-10-30T03:46:13.447Z,96578.13
2022-10-30T03:48:39.783Z,96580.75
2022-10-30T03:51:06.737Z,96576.09
2022-10-30T03:53:33.238Z,96572.91
2022-10-30T03:56:04.794Z,96577.38
2022-10-30T03:58:31.364Z,96577.72
2022-10-30T04:01:03.565Z,96582.66
2022-10-30T04:03:30.936Z,96576.75
2022-10-30T04:05:57.386Z,96585.09
2022-10-30T04:08:24.402Z,96586.47
2022-10-30T04:10:50.864Z,96581.41
2022-10-30T04:13:17.761Z,96577.19
2022-10-30T04:15:44.588Z,96585.19
2022-10-30T04:18:12.210Z,96588.38
2022-10-30T04:20:38.638Z,96582.47
2022-10-30T04:23:07.546Z,96585.75
2022-10-30T04:25:35.075Z,96577.53
2022-10-30T04:28:01.931Z,96585.19
2022-10-30T04:30:29.370Z,96588.66
2022-10-30T04:32:57.200Z,96586.94
2022-10-30T04:35:25.821Z,96590.56
2022-10-30T04:37:57.288Z,96585.75
2022-10-30T04:40:25.467Z,96584.38
2022-10-30T04:42:51.810Z,96586.28
2022-10-30T04:45:18.690Z,96583.91
2022-10-30T04:47:45.691Z,96572.13
2022-10-30T04:50:12.593Z,96582.44
2022-10-30T04:52:39.671Z,96576.56
2022-10-30T04:55:07.100Z,96582.31
2022-10-30T04:57:34.626Z,96584.94
2022-10-30T05:00:00.934Z,96581.03
2022-10-30T05:02:27.404Z,96575.13
2022-10-30T05:04:54.438Z,96572.19
2022-10-30T05:07:20.773Z,96572.38
2022-10-30T05:09:47.643Z,96577.28
2022-10-30T05:12:14.038Z,96575.72
2022-10-30T05:14:40.358Z,96582.22
2022-10-30T05:17:07.005Z,96570.41
2022-10-30T05:19:33.313Z,96569.13
2022-10-30T05:21:59.609Z,96577.09
2022-10-30T05:24:26.362Z,96569.72
2022-10-30T05:26:52.669Z,96575.09
2022-10-30T05:29:18.966Z,96575.66
2022-10-30T05:31:45.769Z,96569.53
2022-10-30T05:34:12.101Z,96574.28
2022-10-30T05:36:38.415Z,96578.00
2022-10-30T05:39:05.150Z,96581.28
2022-10-30T05:41:31.618Z,96577.63
2022-10-30T05:43:58.801Z,96582.81
2022-10-30T05:46:25.113Z,96583.94
2022-10-30T05:48:51.451Z,96571.78
2022-10-30T05:51:18.137Z,96583.81
2022-10-30T05:53:44.454Z,96568.16
2022-10-30T05:56:11.174Z,96568.34
2022-10-30T05:58:37.485Z,96576.91
2022-10-30T06:01:08.109Z,96579.72
2022-10-30T06:03:34.893Z,96582.91
2022-10-30T06:06:01.225Z,96582.47
2022-10-30T06:08:27.553Z,96586.09
2022-10-30T06:10:55.452Z,96588.47
2022-10-30T06:13:21.780Z,96592.13
2022-10-30T06:15:48.268Z,96588.38
2022-10-30T06:18:15.748Z,96584.19
2022-10-30T06:20:42.443Z,96581.09
2022-10-30T06:23:10.804Z,96584.09
2022-10-30T06:25:40.959Z,96579.19
2022-10-30T06:28:09.201Z,96568.97
2022-10-30T06:30:35.722Z,96578.91
2022-10-30T06:33:04.205Z,96577.81
2022-10-30T06:35:30.941Z,96580.47
2022-10-30T06:38:00.695Z,96587.41
2022-10-30T06:40:27.940Z,96585.00
2022-10-30T06:42:54.696Z,96577.34
2022-10-30T06:45:23.536Z,96577.00
2022-10-30T06:47:50.063Z,96577.00
2022-10-30T06:50:18.889Z,96581.72
2022-10-30T06:52:45.977Z,96586.28
2022-10-30T06:55:12.634Z,96578.81
2022-10-30T06:57:39.177Z,96583.25
2022-10-30T07:00:07.746Z,96580.06
2022-10-30T07:02:34.631Z,96580.13
2022-10-30T07:05:01.018Z,96578.19
2022-10-30T07:07:27.841Z,96593.94
2022-10-30T07:09:54.145Z,96580.25
2022-10-30T07:12:20.502Z,96585.13
2022-10-30T07:14:47.334Z,96584.91
2022-10-30T07:17:13.727Z,96592.28
2022-10-30T07:19:40.045Z,96587.31
2022-10-30T07:22:06.734Z,96590.91
2022-10-30T07:24:33.037Z,96589.78
2022-10-30T07:26:59.384Z,96590.56
2022-10-30T07:29:25.704Z,96589.50
2022-10-30T07:32:02.334Z,96592.59
2022-10-30T07:34:30.127Z,96599.00
2022-10-30T07:36:56.443Z,96584.31
2022-10-30T07:39:22.806Z,96583.13
2022-10-30T07:41:50.782Z,96590.09
2022-10-30T07:44:17.366Z,96601.91
2022-10-30T07:46:43.782Z,96585.50
2022-10-30T07:49:10.630Z,96594.97
2022-10-30T07:51:36.950Z,96592.47
2022-10-30T07:54:03.494Z,96595.38
2022-10-30T07:56:30.313Z,96594.56
2022-10-30T07:58:56.624Z,96592.94
2022-10-30T08:01:23.102Z,96606.44
2022-10-30T08:03:50.273Z,96589.97
2022-10-30T08:06:18.997Z,96597.56
2022-10-30T08:08:47.945Z,96591.44
2022-10-30T08:11:14.622Z,96602.41
2022-10-30T08:13:40.973Z,96592.09
2022-10-30T08:16:07.577Z,96590.69
2022-10-30T08:18:34.371Z,96595.47
2022-10-30T08:21:00.673Z,96589.84
2022-10-30T08:23:27.071Z,96589.94
2022-10-30T08:25:56.814Z,96589.59
2022-10-30T08:28:25.866Z,96583.16
2022-10-30T08:30:54.675Z,96590.59
2022-10-30T08:33:21.385Z,96588.72
2022-10-30T08:35:50.296Z,96582.38
2022-10-30T08:38:17.642Z,96586.31
2022-10-30T08:40:44.484Z,96587.31
2022-10-30T08:43:10.990Z,96583.28
2022-10-30T08:45:37.486Z,96581.75
2022-10-30T08:48:05.306Z,96586.44
2022-10-30T08:50:33.529Z,96585.16
2022-10-30T08:53:05.301Z,96589.53
2022-10-30T08:55:32.671Z,96591.06
2022-10-30T08:57:59.461Z,96591.19
2022-10-30T09:00:27.218Z,96584.88
2022-10-30T09:02:54.227Z,96585.53
2022-10-30T09:05:20.826Z,96576.34
2022-10-30T09:07:47.971Z,96583.66
2022-10-30T09:10:14.785Z,96570.00
2022-10-30T09:12:41.137Z,96567.72
2022-10-30T09:15:08.673Z,96569.78
2022-10-30T09:17:35.042Z,96569.13
2022-10-30T09:20:01.509Z,96574.47
2022-10-30T09:22:28.205Z,96570.56
2022-10-30T09:24:54.560Z,96578.66
2022-10-30T09:27:20.865Z,96578.88
2022-10-30T09:29:47.598Z,96570.59
2022-10-30T09:32:13.919Z,96579.38
2022-10-30T09:34:40.942Z,96579.19
2022-10-30T09:37:08.821Z,96581.63
2022-10-30T09:39:35.160Z,96584.56
2022-10-30T09:42:29.770Z,96569.50
2022-10-30T09:45:30.160Z,96576.13
2022-10-30T09:48:02.083Z,96580.84
2022-10-30T09:50:46.982Z,96574.84
2022-10-30T09:53:22.096Z,96588.06
2022-10-30T09:56:08.940Z,96583.13
2022-10-30T09:58:42.646Z,96574.47
2022-10-30T10:01:31.443Z,96590.28
2022-10-30T10:04:22.267Z,96586.38
2022-10-30T10:07:00.282Z,96586.97
2022-10-30T10:09:30.510Z,96574.84
2022-10-30T10:12:09.118Z,96574.88
2022-10-30T10:14:41.799Z,96579.72
2022-10-30T10:17:13.371Z,96583.34
2022-10-30T10:19:49.776Z,96583.03
2022-10-30T10:22:24.947Z,96580.34
2022-10-30T10:24:54.946Z,96578.25
2022-10-30T10:27:33.073Z,96579.88
2022-10-30T10:30:20.684Z,96575.94
2022-10-30T10:33:20.586Z,96576.03
2022-10-30T10:36:06.953Z,96568.31
2022-10-30T10:38:47.294Z,96570.22
2022-10-30T10:41:41.560Z,96570.19
2022-10-30T10:44:22.974Z,96565.34
2022-10-30T10:47:06.742Z,96565.44
2022-10-30T10:50:07.496Z,96566.84
2022-10-30T10:52:40.514Z,96559.03
2022-10-30T10:55:18.836Z,96559.91
2022-10-30T10:57:47.390Z,96558.34
2022-10-30T11:00:19.342Z,96562.50
2022-10-30T11:02:59.424Z,96561.50
2022-10-30T11:05:33.672Z,96557.97
2022-10-30T11:08:10.574Z,96559.38
2022-10-30T11:10:36.897Z,96551.50
2022-10-30T11:13:03.817Z,96550.94
2022-10-30T11:15:42.724Z,96550.34
2022-10-30T11:18:11.243Z,96537.53
2022-10-30T11:21:00.381Z,96543.78
2022-10-30T11:23:34.494Z,96536.06
2022-10-30T11:26:02.232Z,96533.84
2022-10-30T11:28:41.326Z,96533.47
2022-10-30T11:31:35.412Z,96532.22
2022-10-30T11:34:16.887Z,96531.00
2022-10-30T11:36:50.723Z,96536.75
2022-10-30T11:39:28.637Z,96535.56
2022-10-30T11:41:59.369Z,96540.09
2022-10-30T11:44:31.281Z,96530.53
2022-10-30T11:46:58.313Z,96531.31
2022-10-30T11:49:34.708Z,96528.19
2022-10-30T11:52:01.638Z,96521.81
2022-10-30T11:54:28.282Z,96516.06
2022-10-30T11:56:56.614Z,96519.34
2022-10-30T11:59:24.469Z,96523.22
2022-10-30T12:02:19.656Z,96507.97
2022-10-30T12:04:46.065Z,96512.03
2022-10-30T12:07:24.778Z,96512.88
2022-10-30T12:09:51.237Z,96507.78
2022-10-30T12:12:26.068Z,96506.78
2022-10-30T12:14:52.859Z,96505.44
2022-10-30T12:17:21.658Z,96493.63
2022-10-30T12:19:55.188Z,96497.41
2022-10-30T12:22:33.343Z,96502.84
2022-10-30T12:25:04.062Z,96499.91
2022-10-30T12:27:36.207Z,96497.22
2022-10-30T12:30:15.954Z,96499.63
2022-10-30T12:33:20.339Z,96498.88
2022-10-30T12:35:55.787Z,96484.59
2022-10-30T12:38:31.151Z,96488.66
2022-10-30T12:41:06.201Z,96493.78
2022-10-30T12:43:36.491Z,96495.19
2022-10-30T12:46:24.602Z,96483.00
2022-10-30T12:49:00.705Z,96477.34
2022-10-30T12:51:39.825Z,96477.91
2022-10-30T12:54:15.001Z,96479.22
2022-10-30T12:56:44.535Z,96473.59
2022-10-30T12:59:48.247Z,96473.88
2022-10-30T13:02:33.009Z,96473.88
2022-10-30T13:05:26.021Z,96466.06
2022-10-30T13:08:20.864Z,96461.19
2022-10-30T13:10:50.828Z,96463.94
2022-10-30T13:13:24.982Z,96458.53
2022-10-30T13:15:53.402Z,96463.13
2022-10-30T13:18:25.785Z,96453.69
2022-10-30T13:21:27.377Z,96447.22
2022-10-30T13:24:12.510Z,96450.72
2022-10-30T13:27:09.291Z,96452.34
2022-10-30T13:29:54.638Z,96449.63
2022-10-30T13:32:36.341Z,96442.59
2022-10-30T13:35:03.115Z,96439.88
2022-10-30T13:37:34.518Z,96436.38
2022-10-30T13:40:34.110Z,96449.34
2022-10-30T13:43:21.095Z,96441.78
2022-10-30T13:46:02.702Z,96447.75
2022-10-30T13:48:58.632Z,96447.22
2022-10-30T13:51:52.474Z,96445.28
2022-10-30T13:54:34.127Z,96447.22
2022-10-30T13:57:08.278Z,96439.63
2022-10-30T13:59:44.253Z,96447.22
2022-10-30T14:02:41.054Z,96449.91
2022-10-30T14:05:33.981Z,96443.69
2022-10-30T14:08:18.660Z,96451.53
2022-10-30T14:10:57.543Z,96450.47
2022-10-30T14:13:29.707Z,96460.19
2022-10-30T14:16:07.159Z,96452.56
2022-10-30T14:19:00.601Z,96455.25
2022-10-30T14:21:38.718Z,96456.88
2022-10-30T14:24:13.238Z,96463.34
2022-10-30T14:26:54.861Z,96458.47
2022-10-30T14:29:34.187Z,96466.47
2022-10-30T14:32:01.221Z,96457.19
2022-10-30T14:35:00.405Z,96459.84
2022-10-30T14:37:26.881Z,96457.63
2022-10-30T14:39:54.506Z,96462.94
2022-10-30T14:42:32.910Z,96466.28
2022-10-30T14:45:39.079Z,96472.31
2022-10-30T14:48:30.886Z,96466.28
2022-10-30T14:51:14.170Z,96466.63
2022-10-30T14:54:14.323Z,96468.66
2022-10-30T14:56:49.896Z,96472.88
2022-10-30T14:59:16.724Z,96470.06
2022-10-30T15:02:05.005Z,96472.13
2022-10-30T15:04:37.246Z,96470.03
2022-10-30T15:07:12.853Z,96466.03
2022-10-30T15:10:23.557Z,96469.78
2022-10-30T15:13:19.974Z,96468.56
2022-10-30T15:15:58.461Z,96466.38
2022-10-30T15:18:29.389Z,96456.63
2022-10-30T15:21:04.866Z,96461.66
2022-10-30T15:23:33.385Z,96468.31
2022-10-30T15:26:08.221Z,96462.63
2022-10-30T15:28:39.133Z,96468.97
2022-10-30T15:31:05.492Z,96469.66
2022-10-30T15:33:35.334Z,96468.41
2022-10-30T15:36:02.250Z,96474.03
2022-10-30T15:38:28.946Z,96467.06
2022-10-30T15:41:01.014Z,96471.91
2022-10-30T15:43:32.764Z,96477.06
2022-10-30T15:45:59.712Z,96477.53
2022-10-30T15:48:30.038Z,96476.06
2022-10-30T15:51:19.964Z,96477.91
2022-10-30T15:53:47.830Z,96474.25
2022-10-30T15:56:23.213Z,96483.44
2022-10-30T15:58:57.857Z,96476.56
2022-10-30T16:01:25.724Z,96479.56
2022-10-30T16:03:53.583Z,96485.19
2022-10-30T16:06:23.274Z,96484.56
2022-10-30T16:08:50.053Z,96487.00
2022-10-30T16:11:16.721Z,96488.13
2022-10-30T16:13:43.952Z,96486.94
2022-10-30T16:16:16.908Z,96485.47
2022-10-30T16:18:44.509Z,96496.75
2022-10-30T16:21:16.259Z,96486.09
2022-10-30T16:23:49.913Z,96487.56
2022-10-30T16:26:27.746Z,96488.31
2022-10-30T16:28:54.065Z,96490.91
2022-10-30T16:31:20.724Z,96493.91
2022-10-30T16:33:48.762Z,96491.59
2022-10-30T16:36:17.926Z,96496.09
2022-10-30T16:38:47.459Z,96496.78
2022-10-30T16:41:14.694Z,96506.25
2022-10-30T16:43:44.557Z,96493.63
2022-10-30T16:46:14.476Z,96495.44
2022-10-30T16:48:54.682Z,96494.81
2022-10-30T16:51:21.772Z,96498.53
2022-10-30T16:53:50.442Z,96496.13
2022-10-30T16:56:28.210Z,96502.16
2022-10-30T16:59:12.749Z,96505.22
2022-10-30T17:01:39.322Z,96514.59
2022-10-30T17:04:05.918Z,96513.03
2022-10-30T17:06:44.848Z,96517.13
2022-10-30T17:09:28.590Z,96513.59
2022-10-30T17:12:25.088Z,96514.88
2022-10-30T17:15:14.007Z,96513.03
2022-10-30T17:17:42.442Z,96507.84
2022-10-30T17:20:22.748Z,96516.88
2022-10-30T17:23:06.433Z,96517.72
2022-10-30T17:25:37.905Z,96516.56
2022-10-30T17:28:04.925Z,96518.03
2022-10-30T17:30:43.125Z,96520.50
2022-10-30T17:33:37.995Z,96518.06
2022-10-30T17:36:06.014Z,96526.13
2022-10-30T17:38:32.441Z,96535.00
2022-10-30T17:41:00.065Z,96531.56
2022-10-30T17:43:29.448Z,96538.31
2022-10-30T17:45:56.746Z,96541.00
2022-10-30T17:48:27.736Z,96537.94
2022-10-30T17:50:54.828Z,96537.72
2022-10-30T17:53:25.910Z,96541.16
2022-10-30T17:56:15.478Z,96547.94
2022-10-30T17:58:42.682Z,96552.03
2022-10-30T18:01:17.115Z,96552.91
2022-10-30T18:03:44.172Z,96568.00
2022-10-30T18:06:19.169Z,96564.53
2022-10-30T18:08:49.794Z,96563.94
2022-10-30T18:11:20.042Z,96566.75
2022-10-30T18:13:48.026Z,96573.13
2022-10-30T18:16:16.862Z,96569.19
2022-10-30T18:18:44.086Z,96564.69
2022-10-30T18:21:15.725Z,96561.03
2022-10-30T18:23:57.712Z,96561.63
2022-10-30T18:26:26.678Z,96567.13
2022-10-30T18:28:53.623Z,96573.31
2022-10-30T18:31:22.498Z,96565.13
2022-10-30T18:33:49.556Z,96558.78
2022-10-30T18:36:18.669Z,96559.78
2022-10-30T18:38:45.136Z,96556.94
2022-10-30T18:41:15.863Z,96569.16
2022-10-30T18:43:46.616Z,96558.53
2022-10-30T18:46:14.827Z,96566.50
2022-10-30T18:48:41.362Z,96572.41
2022-10-30T18:51:17.019Z,96578.94
2022-10-30T18:53:50.990Z,96578.31
2022-10-30T18:56:29.585Z,96584.25
2022-10-30T18:59:02.139Z,96581.38
2022-10-30T19:01:31.600Z,96581.75
2022-10-30T19:04:01.359Z,96573.59
2022-10-30T19:06:28.097Z,96581.13
2022-10-30T19:08:54.498Z,96585.44
2022-10-30T19:11:24.635Z,96581.50
2022-10-30T19:13:53.185Z,96582.50
2022-10-30T19:16:20.278Z,96585.53
2022-10-30T19:18:48.287Z,96589.84
2022-10-30T19:21:17.297Z,96587.97
2022-10-30T19:23:44.230Z,96593.97
2022-10-30T19:28:43.958Z,96602.91
2022-10-30T19:31:14.928Z,96597.16
2022-10-30T19:33:41.863Z,96598.78
2022-10-30T19:36:30.435Z,96604.84
2022-10-30T19:38:56.877Z,96598.91
2022-10-30T19:41:24.499Z,96599.31
2022-10-30T19:43:51.554Z,96594.16
2022-10-30T19:46:17.902Z,96603.28
2022-10-30T19:49:00.652Z,96593.06
2022-10-30T19:51:28.089Z,96597.72
2022-10-30T19:53:54.937Z,96596.88
2022-10-30T19:56:21.901Z,96601.78
2022-10-30T19:58:48.568Z,96592.69
2022-10-30T20:01:15.084Z,96593.72
2022-10-30T20:03:42.107Z,96591.19
2022-10-30T20:06:12.361Z,96597.66
2022-10-30T20:08:38.966Z,96594.75
2022-10-30T20:11:05.880Z,96594.72
2022-10-30T20:13:33.333Z,96597.34
2022-10-30T20:16:00.369Z,96607.94
2022-10-30T20:18:31.843Z,96608.59
2022-10-30T20:21:00.182Z,96602.47
2022-10-30T20:23:27.309Z,96607.41
2022-10-30T20:25:57.996Z,96599.97
2022-10-30T20:28:28.466Z,96600.75
2022-10-30T20:30:55.586Z,96604.38
2022-10-30T20:33:23.475Z,96599.13
2022-10-30T20:35:50.685Z,96606.56
2022-10-30T20:38:22.516Z,96609.84
2022-10-30T20:40:49.899Z,96608.72
2022-10-30T20:43:18.725Z,96612.75
2022-10-30T20:45:45.698Z,96614.84
2022-10-30T20:48:13.230Z,96611.63
2022-10-30T20:50:40.141Z,96614.03
2022-10-30T20:53:07.154Z,96614.78
2022-10-30T20:55:35.549Z,96615.50
2022-10-30T20:58:03.019Z,96623.19
2022-10-30T21:00:29.825Z,96616.22
2022-10-30T21:02:56.190Z,96616.16
2022-10-30T21:05:42.814Z,96619.53
2022-10-30T21:08:09.276Z,96619.75
2022-10-30T21:10:40.059Z,96617.66
2022-10-30T21:13:09.015Z,96620.16
2022-10-30T21:15:41.908Z,96623.38
2022-10-30T21:18:09.483Z,96626.28
2022-10-30T21:20:36.546Z,96632.03
2022-10-30T21:23:03.376Z,96626.66
2022-10-30T21:25:31.440Z,96619.47
2022-10-30T21:27:58.243Z,96625.78
2022-10-30T21:30:25.100Z,96627.00
2022-10-30T21:32:51.518Z,96622.16
2022-10-30T21:35:19.020Z,96623.56
2022-10-30T21:37:45.396Z,96622.91
2022-10-30T21:40:12.456Z,96624.94
2022-10-30T21:42:39.285Z,96622.34
2022-10-30T21:45:06.493Z,96623.56
2022-10-30T21:47:32.815Z,96622.28
2022-10-30T21:49:59.573Z,96621.03
2022-10-30T21:52:25.975Z,96615.19
2022-10-30T21:54:52.300Z,96619.31
2022-10-30T21:57:19.030Z,96612.94
2022-10-30T21:59:45.398Z,96617.22
2022-10-30T22:02:15.336Z,96614.78
2022-10-30T22:04:42.282Z,96614.84
2022-10-30T22:07:09.131Z,96618.69
2022-10-30T22:09:35.507Z,96615.06
2022-10-30T22:12:02.243Z,96617.06
2022-10-30T22:14:29.169Z,96609.69
2022-10-30T22:16:55.536Z,96617.63
2022-10-30T22:19:22.334Z,96610.75
2022-10-30T22:21:49.099Z,96606.84
2022-10-30T22:24:17.695Z,96612.88
2022-10-30T22:26:44.210Z,96610.59
2022-10-30T22:29:12.086Z,96609.34
2022-10-30T22:31:38.401Z,96603.16
2022-10-30T22:34:04.726Z,96602.88
2022-10-30T22:36:33.620Z,96605.91
2022-10-30T22:39:05.818Z,96598.31
2022-10-30T22:41:37.450Z,96598.69
2022-10-30T22:44:07.793Z,96590.84
2022-10-30T22:46:35.701Z,96597.13
2022-10-30T22:49:02.328Z,96589.47
2022-10-30T22:51:32.049Z,96588.84
2022-10-30T22:54:01.545Z,96588.78
2022-10-30T22:56:31.164Z,96585.19
2022-10-30T22:59:01.195Z,96591.09
2022-10-30T23:01:30.298Z,96593.84
2022-10-30T23:03:59.321Z,96595.78
2022-10-30T23:06:27.210Z,96592.84
2022-10-30T23:08:55.315Z,96591.41
2022-10-30T23:11:21.870Z,96599.03
2022-10-30T23:13:49.089Z,96597.13
2022-10-30T23:16:20.649Z,96595.22
2022-10-30T23:18:47.681Z,96604.56
2022-10-30T23:21:17.653Z,96597.88
2022-10-30T23:23:44.829Z,96602.31
2022-10-30T23:26:14.725Z,96598.66
2022-10-30T23:28:42.074Z,96598.75
2022-10-30T23:31:17.843Z,96594.22
2022-10-30T23:33:47.174Z,96598.03
2022-10-30T23:36:13.477Z,96598.03
2022-10-30T23:38:40.743Z,96594.28
2022-10-30T23:41:07.123Z,96592.38
2022-10-30T23:43:33.475Z,96599.69
2022-10-30T23:46:00.140Z,96601.38
2022-10-30T23:48:26.590Z,96603.56
2022-10-30T23:50:53.445Z,96601.94
2022-10-30T23:53:19.757Z,96600.91
2022-10-30T23:55:51.153Z,96605.09
2022-10-30T23:58:18.103Z,96597.38
